sensor_id;sensor_type;location;lat;lon;timestamp;P1;durP1;ratioP1;P2;durP2;ratioP2
18082;SDS011;9168;51.194;6.840;2023-04-25T00:00:13;20.85;;;4.93;;
18082;SDS011;9168;51.194;6.840;2023-04-25T00:02:40;25.05;;;5.85;;
18082;SDS011;9168;51.194;6.840;2023-04-25T00:05:07;31.75;;;5.80;;
18082;SDS011;9168;51.194;6.840;2023-04-25T00:07:35;23.55;;;6.10;;
18082;SDS011;9168;51.194;6.840;2023-04-25T00:10:02;23.90;;;6.35;;
18082;SDS011;9168;51.194;6.840;2023-04-25T00:12:31;24.63;;;5.93;;
18082;SDS011;9168;51.194;6.840;2023-04-25T00:14:58;25.13;;;5.57;;
18082;SDS011;9168;51.194;6.840;2023-04-25T00:17:25;31.05;;;6.00;;
18082;SDS011;9168;51.194;6.840;2023-04-25T00:19:53;26.65;;;5.50;;
18082;SDS011;9168;51.194;6.840;2023-04-25T00:22:20;22.95;;;5.60;;
18082;SDS011;9168;51.194;6.840;2023-04-25T00:24:47;20.52;;;5.10;;
18082;SDS011;9168;51.194;6.840;2023-04-25T00:27:15;17.98;;;5.05;;
18082;SDS011;9168;51.194;6.840;2023-04-25T00:29:43;25.08;;;6.20;;
18082;SDS011;9168;51.194;6.840;2023-04-25T00:32:10;23.40;;;5.25;;
18082;SDS011;9168;51.194;6.840;2023-04-25T00:34:36;28.73;;;5.75;;
18082;SDS011;9168;51.194;6.840;2023-04-25T00:37:03;21.02;;;4.75;;
18082;SDS011;9168;51.194;6.840;2023-04-25T00:39:31;18.15;;;4.75;;
18082;SDS011;9168;51.194;6.840;2023-04-25T00:41:58;25.88;;;5.57;;
18082;SDS011;9168;51.194;6.840;2023-04-25T00:44:25;24.38;;;5.10;;
18082;SDS011;9168;51.194;6.840;2023-04-25T00:46:55;25.85;;;5.57;;
18082;SDS011;9168;51.194;6.840;2023-04-25T00:49:23;16.90;;;4.80;;
18082;SDS011;9168;51.194;6.840;2023-04-25T00:51:50;20.02;;;4.80;;
18082;SDS011;9168;51.194;6.840;2023-04-25T00:54:17;20.38;;;4.80;;
18082;SDS011;9168;51.194;6.840;2023-04-25T00:56:44;22.55;;;5.15;;
18082;SDS011;9168;51.194;6.840;2023-04-25T00:59:11;23.05;;;4.57;;
18082;SDS011;9168;51.194;6.840;2023-04-25T01:01:38;21.02;;;4.75;;
18082;SDS011;9168;51.194;6.840;2023-04-25T01:04:07;20.50;;;5.32;;
18082;SDS011;9168;51.194;6.840;2023-04-25T01:06:34;22.55;;;5.22;;
18082;SDS011;9168;51.194;6.840;2023-04-25T01:09:01;21.52;;;5.05;;
18082;SDS011;9168;51.194;6.840;2023-04-25T01:11:28;18.63;;;4.97;;
18082;SDS011;9168;51.194;6.840;2023-04-25T01:13:55;21.67;;;5.05;;
18082;SDS011;9168;51.194;6.840;2023-04-25T01:16:22;19.50;;;4.60;;
18082;SDS011;9168;51.194;6.840;2023-04-25T01:18:50;17.08;;;4.97;;
18082;SDS011;9168;51.194;6.840;2023-04-25T01:21:19;23.95;;;5.53;;
18082;SDS011;9168;51.194;6.840;2023-04-25T01:23:46;25.70;;;4.90;;
18082;SDS011;9168;51.194;6.840;2023-04-25T01:26:13;16.17;;;5.00;;
18082;SDS011;9168;51.194;6.840;2023-04-25T01:28:40;22.20;;;4.93;;
18082;SDS011;9168;51.194;6.840;2023-04-25T01:31:07;16.80;;;4.60;;
18082;SDS011;9168;51.194;6.840;2023-04-25T01:33:35;18.13;;;4.18;;
18082;SDS011;9168;51.194;6.840;2023-04-25T01:36:02;13.25;;;4.25;;
18082;SDS011;9168;51.194;6.840;2023-04-25T01:38:31;18.33;;;4.22;;
18082;SDS011;9168;51.194;6.840;2023-04-25T01:40:58;17.20;;;4.10;;
18082;SDS011;9168;51.194;6.840;2023-04-25T01:43:25;20.90;;;4.53;;
18082;SDS011;9168;51.194;6.840;2023-04-25T01:45:52;17.30;;;4.47;;
18082;SDS011;9168;51.194;6.840;2023-04-25T01:48:20;18.17;;;4.43;;
18082;SDS011;9168;51.194;6.840;2023-04-25T01:50:47;17.33;;;4.28;;
18082;SDS011;9168;51.194;6.840;2023-04-25T01:53:14;24.63;;;5.13;;
18082;SDS011;9168;51.194;6.840;2023-04-25T01:55:42;25.73;;;4.65;;
18082;SDS011;9168;51.194;6.840;2023-04-25T01:58:09;17.90;;;4.20;;
18082;SDS011;9168;51.194;6.840;2023-04-25T02:00:37;27.10;;;4.07;;
18082;SDS011;9168;51.194;6.840;2023-04-25T02:03:06;17.98;;;4.68;;
18082;SDS011;9168;51.194;6.840;2023-04-25T02:05:34;20.75;;;4.22;;
18082;SDS011;9168;51.194;6.840;2023-04-25T02:08:02;14.40;;;4.38;;
18082;SDS011;9168;51.194;6.840;2023-04-25T02:10:29;16.65;;;3.92;;
18082;SDS011;9168;51.194;6.840;2023-04-25T02:12:58;18.73;;;4.07;;
18082;SDS011;9168;51.194;6.840;2023-04-25T02:15:25;16.10;;;4.07;;
18082;SDS011;9168;51.194;6.840;2023-04-25T02:17:52;18.25;;;4.10;;
18082;SDS011;9168;51.194;6.840;2023-04-25T02:20:20;15.57;;;3.70;;
18082;SDS011;9168;51.194;6.840;2023-04-25T02:22:47;14.93;;;3.80;;
18082;SDS011;9168;51.194;6.840;2023-04-25T02:25:14;12.93;;;3.38;;
18082;SDS011;9168;51.194;6.840;2023-04-25T02:27:42;16.35;;;4.00;;
18082;SDS011;9168;51.194;6.840;2023-04-25T02:30:10;13.05;;;4.25;;
18082;SDS011;9168;51.194;6.840;2023-04-25T02:32:38;18.83;;;3.72;;
18082;SDS011;9168;51.194;6.840;2023-04-25T02:35:05;19.17;;;3.33;;
18082;SDS011;9168;51.194;6.840;2023-04-25T02:37:33;13.13;;;3.35;;
18082;SDS011;9168;51.194;6.840;2023-04-25T02:40:01;17.30;;;3.50;;
18082;SDS011;9168;51.194;6.840;2023-04-25T02:42:29;12.95;;;2.85;;
18082;SDS011;9168;51.194;6.840;2023-04-25T02:44:56;12.82;;;2.92;;
18082;SDS011;9168;51.194;6.840;2023-04-25T02:47:24;13.38;;;3.40;;
18082;SDS011;9168;51.194;6.840;2023-04-25T02:49:51;11.40;;;2.88;;
18082;SDS011;9168;51.194;6.840;2023-04-25T02:52:18;10.75;;;3.00;;
18082;SDS011;9168;51.194;6.840;2023-04-25T02:54:46;13.52;;;2.70;;
18082;SDS011;9168;51.194;6.840;2023-04-25T02:57:13;11.60;;;2.67;;
18082;SDS011;9168;51.194;6.840;2023-04-25T02:59:39;9.75;;;3.13;;
18082;SDS011;9168;51.194;6.840;2023-04-25T03:02:06;12.43;;;3.05;;
18082;SDS011;9168;51.194;6.840;2023-04-25T03:04:35;16.70;;;3.45;;
18082;SDS011;9168;51.194;6.840;2023-04-25T03:07:01;11.70;;;3.50;;
18082;SDS011;9168;51.194;6.840;2023-04-25T03:09:28;13.02;;;4.53;;
18082;SDS011;9168;51.194;6.840;2023-04-25T03:11:55;18.23;;;4.05;;
18082;SDS011;9168;51.194;6.840;2023-04-25T03:14:22;19.55;;;3.70;;
18082;SDS011;9168;51.194;6.840;2023-04-25T03:16:49;18.45;;;4.10;;
18082;SDS011;9168;51.194;6.840;2023-04-25T03:19:16;14.27;;;3.58;;
18082;SDS011;9168;51.194;6.840;2023-04-25T03:21:45;19.42;;;4.00;;
18082;SDS011;9168;51.194;6.840;2023-04-25T03:24:11;13.70;;;4.13;;
18082;SDS011;9168;51.194;6.840;2023-04-25T03:26:38;19.15;;;4.10;;
18082;SDS011;9168;51.194;6.840;2023-04-25T03:29:05;18.52;;;3.72;;
18082;SDS011;9168;51.194;6.840;2023-04-25T03:31:32;20.20;;;4.53;;
18082;SDS011;9168;51.194;6.840;2023-04-25T03:33:59;16.55;;;4.25;;
18082;SDS011;9168;51.194;6.840;2023-04-25T03:36:26;22.48;;;4.90;;
18082;SDS011;9168;51.194;6.840;2023-04-25T03:38:54;25.38;;;5.00;;
18082;SDS011;9168;51.194;6.840;2023-04-25T03:41:21;17.92;;;4.53;;
18082;SDS011;9168;51.194;6.840;2023-04-25T03:43:48;14.27;;;4.15;;
18082;SDS011;9168;51.194;6.840;2023-04-25T03:46:15;19.67;;;4.90;;
18082;SDS011;9168;51.194;6.840;2023-04-25T03:48:41;20.48;;;4.43;;
18082;SDS011;9168;51.194;6.840;2023-04-25T03:51:08;21.00;;;5.35;;
18082;SDS011;9168;51.194;6.840;2023-04-25T03:53:35;24.75;;;4.82;;
18082;SDS011;9168;51.194;6.840;2023-04-25T03:56:04;24.10;;;4.90;;
18082;SDS011;9168;51.194;6.840;2023-04-25T03:58:31;18.95;;;4.75;;
18082;SDS011;9168;51.194;6.840;2023-04-25T04:00:58;22.20;;;4.65;;
18082;SDS011;9168;51.194;6.840;2023-04-25T04:03:25;23.55;;;5.97;;
18082;SDS011;9168;51.194;6.840;2023-04-25T04:05:52;22.63;;;5.05;;
18082;SDS011;9168;51.194;6.840;2023-04-25T04:08:18;26.92;;;5.85;;
18082;SDS011;9168;51.194;6.840;2023-04-25T04:10:45;20.42;;;5.10;;
18082;SDS011;9168;51.194;6.840;2023-04-25T04:13:14;20.92;;;5.63;;
18082;SDS011;9168;51.194;6.840;2023-04-25T04:15:40;17.33;;;5.22;;
18082;SDS011;9168;51.194;6.840;2023-04-25T04:18:07;28.73;;;5.63;;
18082;SDS011;9168;51.194;6.840;2023-04-25T04:20:34;27.27;;;5.13;;
18082;SDS011;9168;51.194;6.840;2023-04-25T04:23:01;18.42;;;4.43;;
18082;SDS011;9168;51.194;6.840;2023-04-25T04:25:28;28.58;;;4.93;;
18082;SDS011;9168;51.194;6.840;2023-04-25T04:27:55;21.90;;;4.75;;
18082;SDS011;9168;51.194;6.840;2023-04-25T04:30:24;29.67;;;5.40;;
18082;SDS011;9168;51.194;6.840;2023-04-25T04:32:50;21.10;;;4.90;;
18082;SDS011;9168;51.194;6.840;2023-04-25T04:35:17;27.88;;;6.32;;
18082;SDS011;9168;51.194;6.840;2023-04-25T04:37:44;17.77;;;5.32;;
18082;SDS011;9168;51.194;6.840;2023-04-25T04:40:12;26.40;;;5.25;;
18082;SDS011;9168;51.194;6.840;2023-04-25T04:42:40;20.75;;;4.30;;
18082;SDS011;9168;51.194;6.840;2023-04-25T04:45:08;24.95;;;5.00;;
18082;SDS011;9168;51.194;6.840;2023-04-25T04:47:37;21.90;;;5.38;;
18082;SDS011;9168;51.194;6.840;2023-04-25T04:50:05;19.73;;;5.10;;
18082;SDS011;9168;51.194;6.840;2023-04-25T04:52:33;18.30;;;4.85;;
18082;SDS011;9168;51.194;6.840;2023-04-25T04:55:00;24.00;;;4.82;;
18082;SDS011;9168;51.194;6.840;2023-04-25T04:57:28;34.60;;;5.30;;
18082;SDS011;9168;51.194;6.840;2023-04-25T04:59:56;33.28;;;5.15;;
18082;SDS011;9168;51.194;6.840;2023-04-25T05:02:23;23.08;;;6.10;;
18082;SDS011;9168;51.194;6.840;2023-04-25T05:04:51;26.25;;;5.82;;
18082;SDS011;9168;51.194;6.840;2023-04-25T05:07:18;23.73;;;5.35;;
18082;SDS011;9168;51.194;6.840;2023-04-25T05:09:45;32.20;;;5.55;;
18082;SDS011;9168;51.194;6.840;2023-04-25T05:12:12;24.25;;;5.22;;
18082;SDS011;9168;51.194;6.840;2023-04-25T05:14:39;22.85;;;5.55;;
18082;SDS011;9168;51.194;6.840;2023-04-25T05:17:06;30.25;;;5.38;;
18082;SDS011;9168;51.194;6.840;2023-04-25T05:19:33;24.48;;;5.20;;
18082;SDS011;9168;51.194;6.840;2023-04-25T05:22:02;26.23;;;4.38;;
18082;SDS011;9168;51.194;6.840;2023-04-25T05:24:29;22.80;;;5.03;;
18082;SDS011;9168;51.194;6.840;2023-04-25T05:26:56;22.80;;;4.85;;
18082;SDS011;9168;51.194;6.840;2023-04-25T05:29:23;25.55;;;4.85;;
18082;SDS011;9168;51.194;6.840;2023-04-25T05:31:50;23.35;;;4.60;;
18082;SDS011;9168;51.194;6.840;2023-04-25T05:34:18;25.30;;;4.90;;
18082;SDS011;9168;51.194;6.840;2023-04-25T05:36:44;19.65;;;4.85;;
18082;SDS011;9168;51.194;6.840;2023-04-25T05:39:14;30.73;;;5.40;;
18082;SDS011;9168;51.194;6.840;2023-04-25T05:41:42;24.52;;;4.95;;
18082;SDS011;9168;51.194;6.840;2023-04-25T05:44:09;29.77;;;5.25;;
18082;SDS011;9168;51.194;6.840;2023-04-25T05:46:36;28.70;;;5.40;;
18082;SDS011;9168;51.194;6.840;2023-04-25T05:49:03;25.13;;;5.35;;
18082;SDS011;9168;51.194;6.840;2023-04-25T05:51:29;25.60;;;4.82;;
18082;SDS011;9168;51.194;6.840;2023-04-25T05:53:56;25.02;;;4.60;;
18082;SDS011;9168;51.194;6.840;2023-04-25T05:56:24;29.83;;;4.70;;
18082;SDS011;9168;51.194;6.840;2023-04-25T05:58:51;25.33;;;4.85;;
18082;SDS011;9168;51.194;6.840;2023-04-25T06:01:19;22.13;;;4.40;;
18082;SDS011;9168;51.194;6.840;2023-04-25T06:03:46;20.80;;;3.95;;
18082;SDS011;9168;51.194;6.840;2023-04-25T06:06:13;26.38;;;4.93;;
18082;SDS011;9168;51.194;6.840;2023-04-25T06:08:40;21.58;;;4.55;;
18082;SDS011;9168;51.194;6.840;2023-04-25T06:11:07;23.25;;;4.43;;
18082;SDS011;9168;51.194;6.840;2023-04-25T06:13:35;25.38;;;4.65;;
18082;SDS011;9168;51.194;6.840;2023-04-25T06:16:02;26.88;;;5.35;;
18082;SDS011;9168;51.194;6.840;2023-04-25T06:18:29;21.73;;;4.88;;
18082;SDS011;9168;51.194;6.840;2023-04-25T06:20:56;17.55;;;4.70;;
18082;SDS011;9168;51.194;6.840;2023-04-25T06:23:23;20.77;;;4.43;;
18082;SDS011;9168;51.194;6.840;2023-04-25T06:25:50;17.25;;;4.43;;
18082;SDS011;9168;51.194;6.840;2023-04-25T06:28:17;25.42;;;4.97;;
18082;SDS011;9168;51.194;6.840;2023-04-25T06:30:45;22.95;;;4.95;;
18082;SDS011;9168;51.194;6.840;2023-04-25T06:33:12;18.35;;;4.90;;
18082;SDS011;9168;51.194;6.840;2023-04-25T06:35:39;19.85;;;4.60;;
18082;SDS011;9168;51.194;6.840;2023-04-25T06:38:06;32.40;;;4.60;;
18082;SDS011;9168;51.194;6.840;2023-04-25T06:40:34;17.58;;;4.50;;
18082;SDS011;9168;51.194;6.840;2023-04-25T06:43:00;20.27;;;4.50;;
18082;SDS011;9168;51.194;6.840;2023-04-25T06:45:27;21.75;;;4.95;;
18082;SDS011;9168;51.194;6.840;2023-04-25T06:47:56;28.63;;;5.57;;
18082;SDS011;9168;51.194;6.840;2023-04-25T06:50:22;25.38;;;5.75;;
18082;SDS011;9168;51.194;6.840;2023-04-25T06:52:49;24.45;;;4.65;;
18082;SDS011;9168;51.194;6.840;2023-04-25T06:55:16;25.08;;;5.13;;
18082;SDS011;9168;51.194;6.840;2023-04-25T06:57:43;19.25;;;4.85;;
18082;SDS011;9168;51.194;6.840;2023-04-25T07:00:10;20.35;;;5.28;;
18082;SDS011;9168;51.194;6.840;2023-04-25T07:02:38;24.73;;;5.53;;
18082;SDS011;9168;51.194;6.840;2023-04-25T07:05:09;24.08;;;4.90;;
18082;SDS011;9168;51.194;6.840;2023-04-25T07:07:35;27.15;;;5.38;;
18082;SDS011;9168;51.194;6.840;2023-04-25T07:10:02;21.35;;;5.22;;
18082;SDS011;9168;51.194;6.840;2023-04-25T07:12:30;24.33;;;4.78;;
18082;SDS011;9168;51.194;6.840;2023-04-25T07:14:57;19.63;;;4.82;;
18082;SDS011;9168;51.194;6.840;2023-04-25T07:17:24;18.48;;;4.10;;
18082;SDS011;9168;51.194;6.840;2023-04-25T07:19:50;20.35;;;4.43;;
18082;SDS011;9168;51.194;6.840;2023-04-25T07:22:19;18.67;;;4.03;;
18082;SDS011;9168;51.194;6.840;2023-04-25T07:24:47;22.83;;;3.63;;
18082;SDS011;9168;51.194;6.840;2023-04-25T07:27:13;23.83;;;5.38;;
18082;SDS011;9168;51.194;6.840;2023-04-25T07:29:40;23.15;;;4.15;;
18082;SDS011;9168;51.194;6.840;2023-04-25T07:32:07;22.50;;;4.72;;
18082;SDS011;9168;51.194;6.840;2023-04-25T07:34:35;27.63;;;4.68;;
18082;SDS011;9168;51.194;6.840;2023-04-25T07:37:03;20.70;;;4.93;;
18082;SDS011;9168;51.194;6.840;2023-04-25T07:39:32;22.40;;;4.10;;
18082;SDS011;9168;51.194;6.840;2023-04-25T07:41:58;21.38;;;4.10;;
18082;SDS011;9168;51.194;6.840;2023-04-25T07:44:25;19.77;;;3.42;;
18082;SDS011;9168;51.194;6.840;2023-04-25T07:46:52;20.15;;;3.13;;
18082;SDS011;9168;51.194;6.840;2023-04-25T07:49:19;17.60;;;3.63;;
18082;SDS011;9168;51.194;6.840;2023-04-25T07:51:46;22.90;;;3.58;;
18082;SDS011;9168;51.194;6.840;2023-04-25T07:54:13;21.60;;;3.30;;
18082;SDS011;9168;51.194;6.840;2023-04-25T07:56:42;23.73;;;4.22;;
18082;SDS011;9168;51.194;6.840;2023-04-25T07:59:09;19.77;;;4.50;;
18082;SDS011;9168;51.194;6.840;2023-04-25T08:01:35;22.67;;;3.85;;
18082;SDS011;9168;51.194;6.840;2023-04-25T08:04:02;19.52;;;4.68;;
18082;SDS011;9168;51.194;6.840;2023-04-25T08:06:29;19.75;;;4.35;;
18082;SDS011;9168;51.194;6.840;2023-04-25T08:08:56;19.77;;;3.70;;
18082;SDS011;9168;51.194;6.840;2023-04-25T08:11:23;24.65;;;4.20;;
18082;SDS011;9168;51.194;6.840;2023-04-25T08:13:52;22.23;;;4.10;;
18082;SDS011;9168;51.194;6.840;2023-04-25T08:16:19;17.27;;;3.20;;
18082;SDS011;9168;51.194;6.840;2023-04-25T08:18:46;15.48;;;3.15;;
18082;SDS011;9168;51.194;6.840;2023-04-25T08:21:12;15.95;;;2.88;;
18082;SDS011;9168;51.194;6.840;2023-04-25T08:23:40;13.75;;;2.88;;
18082;SDS011;9168;51.194;6.840;2023-04-25T08:26:07;28.17;;;4.00;;
18082;SDS011;9168;51.194;6.840;2023-04-25T08:28:34;20.23;;;3.80;;
18082;SDS011;9168;51.194;6.840;2023-04-25T08:31:02;17.50;;;3.53;;
18082;SDS011;9168;51.194;6.840;2023-04-25T08:33:29;15.90;;;3.65;;
18082;SDS011;9168;51.194;6.840;2023-04-25T08:35:57;20.83;;;4.65;;
18082;SDS011;9168;51.194;6.840;2023-04-25T08:38:24;22.08;;;4.32;;
18082;SDS011;9168;51.194;6.840;2023-04-25T08:40:51;14.20;;;3.33;;
18082;SDS011;9168;51.194;6.840;2023-04-25T08:43:19;17.88;;;3.70;;
18082;SDS011;9168;51.194;6.840;2023-04-25T08:45:46;18.25;;;3.58;;
18082;SDS011;9168;51.194;6.840;2023-04-25T08:48:15;13.57;;;4.10;;
18082;SDS011;9168;51.194;6.840;2023-04-25T08:50:45;19.25;;;3.88;;
18082;SDS011;9168;51.194;6.840;2023-04-25T08:53:15;14.77;;;3.45;;
18082;SDS011;9168;51.194;6.840;2023-04-25T08:55:45;14.82;;;3.22;;
18082;SDS011;9168;51.194;6.840;2023-04-25T08:58:12;15.82;;;3.30;;
18082;SDS011;9168;51.194;6.840;2023-04-25T09:00:40;22.50;;;3.35;;
18082;SDS011;9168;51.194;6.840;2023-04-25T09:03:07;12.07;;;3.03;;
18082;SDS011;9168;51.194;6.840;2023-04-25T09:05:36;18.40;;;3.47;;
18082;SDS011;9168;51.194;6.840;2023-04-25T09:08:03;14.23;;;2.88;;
18082;SDS011;9168;51.194;6.840;2023-04-25T09:10:30;15.77;;;3.13;;
18082;SDS011;9168;51.194;6.840;2023-04-25T09:13:01;12.07;;;2.30;;
18082;SDS011;9168;51.194;6.840;2023-04-25T09:15:30;13.35;;;2.60;;
18082;SDS011;9168;51.194;6.840;2023-04-25T09:17:58;12.43;;;2.60;;
18082;SDS011;9168;51.194;6.840;2023-04-25T09:20:25;11.00;;;2.10;;
18082;SDS011;9168;51.194;6.840;2023-04-25T09:23:03;15.10;;;2.55;;
18082;SDS011;9168;51.194;6.840;2023-04-25T09:25:35;11.80;;;2.47;;
18082;SDS011;9168;51.194;6.840;2023-04-25T09:28:04;16.73;;;2.65;;
18082;SDS011;9168;51.194;6.840;2023-04-25T09:30:33;13.23;;;2.97;;
18082;SDS011;9168;51.194;6.840;2023-04-25T09:33:04;20.92;;;2.95;;
18082;SDS011;9168;51.194;6.840;2023-04-25T09:35:35;13.20;;;3.15;;
18082;SDS011;9168;51.194;6.840;2023-04-25T09:38:08;10.65;;;2.80;;
18082;SDS011;9168;51.194;6.840;2023-04-25T09:40:38;19.75;;;2.95;;
18082;SDS011;9168;51.194;6.840;2023-04-25T09:43:08;14.77;;;2.60;;
18082;SDS011;9168;51.194;6.840;2023-04-25T09:45:40;14.80;;;2.78;;
18082;SDS011;9168;51.194;6.840;2023-04-25T09:48:10;11.15;;;2.25;;
18082;SDS011;9168;51.194;6.840;2023-04-25T09:50:37;15.75;;;2.40;;
18082;SDS011;9168;51.194;6.840;2023-04-25T09:53:05;16.27;;;2.60;;
18082;SDS011;9168;51.194;6.840;2023-04-25T09:55:34;11.20;;;2.85;;
18082;SDS011;9168;51.194;6.840;2023-04-25T09:58:04;16.85;;;2.88;;
18082;SDS011;9168;51.194;6.840;2023-04-25T10:00:32;16.80;;;2.67;;
18082;SDS011;9168;51.194;6.840;2023-04-25T10:03:00;11.27;;;1.98;;
18082;SDS011;9168;51.194;6.840;2023-04-25T10:05:30;11.00;;;2.33;;
18082;SDS011;9168;51.194;6.840;2023-04-25T10:07:58;7.50;;;1.88;;
18082;SDS011;9168;51.194;6.840;2023-04-25T10:10:29;8.48;;;1.83;;
18082;SDS011;9168;51.194;6.840;2023-04-25T10:13:01;8.05;;;1.85;;
18082;SDS011;9168;51.194;6.840;2023-04-25T10:15:30;8.85;;;1.75;;
18082;SDS011;9168;51.194;6.840;2023-04-25T10:17:59;17.08;;;2.63;;
18082;SDS011;9168;51.194;6.840;2023-04-25T10:20:26;14.80;;;2.42;;
18082;SDS011;9168;51.194;6.840;2023-04-25T10:22:54;8.68;;;2.38;;
18082;SDS011;9168;51.194;6.840;2023-04-25T10:25:24;14.57;;;2.45;;
18082;SDS011;9168;51.194;6.840;2023-04-25T10:27:52;10.60;;;2.42;;
18082;SDS011;9168;51.194;6.840;2023-04-25T10:30:20;16.60;;;2.47;;
18082;SDS011;9168;51.194;6.840;2023-04-25T10:32:46;8.30;;;1.80;;
18082;SDS011;9168;51.194;6.840;2023-04-25T10:35:16;15.13;;;2.72;;
18082;SDS011;9168;51.194;6.840;2023-04-25T10:37:57;9.65;;;2.30;;
18082;SDS011;9168;51.194;6.840;2023-04-25T10:40:29;10.93;;;2.45;;
18082;SDS011;9168;51.194;6.840;2023-04-25T10:43:32;9.10;;;2.35;;
18082;SDS011;9168;51.194;6.840;2023-04-25T10:46:03;11.25;;;1.50;;
18082;SDS011;9168;51.194;6.840;2023-04-25T10:48:43;15.45;;;3.00;;
18082;SDS011;9168;51.194;6.840;2023-04-25T10:51:15;9.13;;;2.00;;
18082;SDS011;9168;51.194;6.840;2023-04-25T10:53:43;14.88;;;2.58;;
18082;SDS011;9168;51.194;6.840;2023-04-25T10:56:11;11.20;;;2.00;;
18082;SDS011;9168;51.194;6.840;2023-04-25T10:58:44;10.60;;;1.38;;
18082;SDS011;9168;51.194;6.840;2023-04-25T11:01:12;14.77;;;1.95;;
18082;SDS011;9168;51.194;6.840;2023-04-25T11:03:42;12.07;;;1.77;;
18082;SDS011;9168;51.194;6.840;2023-04-25T11:06:15;7.38;;;1.52;;
18082;SDS011;9168;51.194;6.840;2023-04-25T11:08:48;11.18;;;1.60;;
18082;SDS011;9168;51.194;6.840;2023-04-25T11:11:16;7.60;;;1.60;;
18082;SDS011;9168;51.194;6.840;2023-04-25T11:13:46;11.73;;;1.88;;
18082;SDS011;9168;51.194;6.840;2023-04-25T11:16:14;11.27;;;2.00;;
18082;SDS011;9168;51.194;6.840;2023-04-25T11:18:41;5.90;;;1.50;;
18082;SDS011;9168;51.194;6.840;2023-04-25T11:21:08;11.70;;;1.98;;
18082;SDS011;9168;51.194;6.840;2023-04-25T11:23:35;13.52;;;2.10;;
18082;SDS011;9168;51.194;6.840;2023-04-25T11:26:02;10.13;;;1.52;;
18082;SDS011;9168;51.194;6.840;2023-04-25T11:28:29;9.80;;;2.15;;
18082;SDS011;9168;51.194;6.840;2023-04-25T11:30:57;5.65;;;1.67;;
18082;SDS011;9168;51.194;6.840;2023-04-25T11:33:24;10.70;;;1.95;;
18082;SDS011;9168;51.194;6.840;2023-04-25T11:35:53;8.95;;;1.65;;
18082;SDS011;9168;51.194;6.840;2023-04-25T11:38:21;10.52;;;2.25;;
18082;SDS011;9168;51.194;6.840;2023-04-25T11:40:51;7.78;;;1.80;;
18082;SDS011;9168;51.194;6.840;2023-04-25T11:43:20;9.48;;;2.10;;
18082;SDS011;9168;51.194;6.840;2023-04-25T11:45:48;8.63;;;2.33;;
18082;SDS011;9168;51.194;6.840;2023-04-25T11:48:17;5.93;;;1.80;;
18082;SDS011;9168;51.194;6.840;2023-04-25T11:50:44;9.65;;;2.05;;
18082;SDS011;9168;51.194;6.840;2023-04-25T11:53:11;11.52;;;2.35;;
18082;SDS011;9168;51.194;6.840;2023-04-25T11:55:38;9.45;;;2.20;;
18082;SDS011;9168;51.194;6.840;2023-04-25T11:58:05;6.55;;;2.00;;
18082;SDS011;9168;51.194;6.840;2023-04-25T12:00:33;12.05;;;2.38;;
18082;SDS011;9168;51.194;6.840;2023-04-25T12:03:01;13.57;;;2.65;;
18082;SDS011;9168;51.194;6.840;2023-04-25T12:05:30;8.43;;;2.30;;
18082;SDS011;9168;51.194;6.840;2023-04-25T12:07:58;14.32;;;2.33;;
18082;SDS011;9168;51.194;6.840;2023-04-25T12:10:37;7.05;;;2.05;;
18082;SDS011;9168;51.194;6.840;2023-04-25T12:13:17;8.07;;;2.33;;
18082;SDS011;9168;51.194;6.840;2023-04-25T12:15:45;11.05;;;2.75;;
18082;SDS011;9168;51.194;6.840;2023-04-25T12:18:12;11.88;;;2.47;;
18082;SDS011;9168;51.194;6.840;2023-04-25T12:20:41;14.70;;;2.40;;
18082;SDS011;9168;51.194;6.840;2023-04-25T12:23:08;10.98;;;2.22;;
18082;SDS011;9168;51.194;6.840;2023-04-25T12:25:36;11.38;;;2.67;;
18082;SDS011;9168;51.194;6.840;2023-04-25T12:28:11;17.98;;;2.47;;
18082;SDS011;9168;51.194;6.840;2023-04-25T12:30:52;7.53;;;1.70;;
18082;SDS011;9168;51.194;6.840;2023-04-25T12:33:20;9.10;;;2.20;;
18082;SDS011;9168;51.194;6.840;2023-04-25T12:35:48;13.23;;;2.85;;
18082;SDS011;9168;51.194;6.840;2023-04-25T12:38:20;12.68;;;3.13;;
18082;SDS011;9168;51.194;6.840;2023-04-25T12:40:47;16.17;;;3.85;;
18082;SDS011;9168;51.194;6.840;2023-04-25T12:43:14;13.40;;;3.58;;
18082;SDS011;9168;51.194;6.840;2023-04-25T12:45:41;15.85;;;3.88;;
18082;SDS011;9168;51.194;6.840;2023-04-25T12:48:08;17.20;;;3.58;;
18082;SDS011;9168;51.194;6.840;2023-04-25T12:50:35;15.68;;;3.13;;
18082;SDS011;9168;51.194;6.840;2023-04-25T12:53:03;12.90;;;3.25;;
18082;SDS011;9168;51.194;6.840;2023-04-25T12:55:30;23.25;;;3.80;;
18082;SDS011;9168;51.194;6.840;2023-04-25T12:57:57;14.57;;;3.65;;
18082;SDS011;9168;51.194;6.840;2023-04-25T13:00:24;12.00;;;3.08;;
18082;SDS011;9168;51.194;6.840;2023-04-25T13:02:51;8.63;;;2.83;;
18082;SDS011;9168;51.194;6.840;2023-04-25T13:05:18;12.75;;;3.72;;
18082;SDS011;9168;51.194;6.840;2023-04-25T13:07:45;13.57;;;3.60;;
18082;SDS011;9168;51.194;6.840;2023-04-25T13:10:13;11.82;;;3.22;;
18082;SDS011;9168;51.194;6.840;2023-04-25T13:12:40;11.73;;;3.70;;
18082;SDS011;9168;51.194;6.840;2023-04-25T13:15:08;11.00;;;3.15;;
18082;SDS011;9168;51.194;6.840;2023-04-25T13:17:36;12.07;;;2.10;;
18082;SDS011;9168;51.194;6.840;2023-04-25T13:20:03;12.18;;;2.83;;
18082;SDS011;9168;51.194;6.840;2023-04-25T13:22:33;11.43;;;2.88;;
18082;SDS011;9168;51.194;6.840;2023-04-25T13:25:02;13.55;;;3.15;;
18082;SDS011;9168;51.194;6.840;2023-04-25T13:27:30;14.10;;;2.92;;
18082;SDS011;9168;51.194;6.840;2023-04-25T13:29:59;10.95;;;2.40;;
18082;SDS011;9168;51.194;6.840;2023-04-25T13:32:26;8.73;;;2.20;;
18082;SDS011;9168;51.194;6.840;2023-04-25T13:34:53;10.98;;;2.03;;
18082;SDS011;9168;51.194;6.840;2023-04-25T13:37:20;7.53;;;2.00;;
18082;SDS011;9168;51.194;6.840;2023-04-25T13:39:49;11.43;;;1.73;;
18082;SDS011;9168;51.194;6.840;2023-04-25T13:42:16;6.47;;;1.60;;
18082;SDS011;9168;51.194;6.840;2023-04-25T13:44:47;6.68;;;1.80;;
18082;SDS011;9168;51.194;6.840;2023-04-25T13:47:14;10.38;;;1.95;;
18082;SDS011;9168;51.194;6.840;2023-04-25T13:49:40;7.30;;;1.83;;
18082;SDS011;9168;51.194;6.840;2023-04-25T13:52:07;10.55;;;1.95;;
18082;SDS011;9168;51.194;6.840;2023-04-25T13:54:34;9.77;;;2.10;;
18082;SDS011;9168;51.194;6.840;2023-04-25T13:57:01;13.45;;;2.03;;
18082;SDS011;9168;51.194;6.840;2023-04-25T13:59:28;7.65;;;1.80;;
18082;SDS011;9168;51.194;6.840;2023-04-25T14:01:56;11.88;;;2.05;;
18082;SDS011;9168;51.194;6.840;2023-04-25T14:04:23;9.00;;;1.60;;
18082;SDS011;9168;51.194;6.840;2023-04-25T14:06:51;5.90;;;1.52;;
18082;SDS011;9168;51.194;6.840;2023-04-25T14:09:18;6.22;;;1.40;;
18082;SDS011;9168;51.194;6.840;2023-04-25T14:11:50;6.25;;;1.00;;
18082;SDS011;9168;51.194;6.840;2023-04-25T14:14:20;7.15;;;1.73;;
18082;SDS011;9168;51.194;6.840;2023-04-25T14:16:48;11.98;;;2.10;;
18082;SDS011;9168;51.194;6.840;2023-04-25T14:19:17;10.75;;;2.17;;
18082;SDS011;9168;51.194;6.840;2023-04-25T14:21:44;4.88;;;1.60;;
18082;SDS011;9168;51.194;6.840;2023-04-25T14:24:11;14.25;;;1.95;;
18082;SDS011;9168;51.194;6.840;2023-04-25T14:26:39;10.80;;;2.08;;
18082;SDS011;9168;51.194;6.840;2023-04-25T14:29:07;11.05;;;1.80;;
18082;SDS011;9168;51.194;6.840;2023-04-25T14:31:37;10.90;;;2.20;;
18082;SDS011;9168;51.194;6.840;2023-04-25T14:34:04;6.53;;;1.90;;
18082;SDS011;9168;51.194;6.840;2023-04-25T14:36:33;12.35;;;1.85;;
18082;SDS011;9168;51.194;6.840;2023-04-25T14:39:01;10.25;;;2.28;;
18082;SDS011;9168;51.194;6.840;2023-04-25T14:41:29;8.20;;;1.92;;
18082;SDS011;9168;51.194;6.840;2023-04-25T14:43:56;9.27;;;2.13;;
18082;SDS011;9168;51.194;6.840;2023-04-25T14:46:23;11.38;;;1.90;;
18082;SDS011;9168;51.194;6.840;2023-04-25T14:48:50;7.93;;;2.33;;
18082;SDS011;9168;51.194;6.840;2023-04-25T14:51:17;10.07;;;1.98;;
18082;SDS011;9168;51.194;6.840;2023-04-25T14:53:45;8.43;;;1.80;;